< < Back
Terminal Aerodrome Forecast


Current Version              Previous Versions:   1  2  3  4  5  6  7  8  9  

Terminal Aerodrome Forecast

732
FTUS44 KBMX 200500
TAFBHM
TAF
KBHM 200526Z 2006/2106 09003KT P6SM FEW035=



Latest METAR

225
SAUS70 KWBC 202200
MTRBHM
METAR KBHM 202153Z 10004KT 10SM FEW045 27/16 A3004 RMK AO2 SLP164
T02720161


USA.gov is the U.S. government's official web portal to all federal, state and local government web resources and services.